Time;durP1;ratioP1;P1;durP2;ratioP2;P2;SDS_P1;SDS_P2;PMS_P1;PMS_P2;Temp;Humidity;BMP_temperature;BMP_pressure;BME280_temperature;BME280_humidity;BME280_pressure;Samples;Min_cycle;Max_cycle;Signal;HPM_P1;HPM_P2
2023/03/28 00:00:03;;;;;;;5.57;2.20;;;3.20;99.90;;;;;;5062497;28;20013;-59
2023/03/28 00:02:29;;;;;;;7.20;2.35;;;3.10;99.90;;;;;;5058255;28;20021;-59
2023/03/28 00:04:55;;;;;;;3.28;1.73;;;3.10;99.90;;;;;;5059619;28;20052;-59
2023/03/28 00:07:21;;;;;;;6.00;2.60;;;3.30;99.90;;;;;;5059482;28;20013;-59
2023/03/28 00:09:50;;;;;;;9.07;2.17;;;3.00;99.90;;;;;;5042327;28;20045;-58
2023/03/28 00:12:15;;;;;;;10.40;2.60;;;3.10;99.90;;;;;;5046411;28;20022;-60
2023/03/28 00:14:42;;;;;;;5.60;2.80;;;2.90;99.90;;;;;;5022664;28;20025;-57
2023/03/28 00:17:07;;;;;;;3.45;2.28;;;2.90;99.90;;;;;;5022418;28;20101;-57
2023/03/28 00:19:33;;;;;;;7.10;3.38;;;2.20;99.90;;;;;;5022505;28;20018;-59
2023/03/28 00:21:59;;;;;;;4.97;2.33;;;2.90;99.90;;;;;;5050733;28;20087;-60
2023/03/28 00:24:25;;;;;;;8.27;2.45;;;3.00;99.90;;;;;;5059215;28;20096;-59
2023/03/28 00:26:54;;;;;;;7.30;3.38;;;2.90;99.90;;;;;;5058909;28;20026;-58
2023/03/28 00:29:21;;;;;;;4.63;2.83;;;2.70;99.90;;;;;;5059049;28;20063;-58
2023/03/28 00:31:48;;;;;;;9.55;3.28;;;2.90;99.90;;;;;;5048523;28;20030;-59
2023/03/28 00:34:15;;;;;;;7.20;2.67;;;2.80;99.90;;;;;;5039221;28;20025;-58
2023/03/28 00:36:41;;;;;;;4.78;3.08;;;2.90;99.90;;;;;;5038953;28;20086;-55
2023/03/28 00:39:10;;;;;;;5.97;2.55;;;3.00;99.90;;;;;;5037126;28;20022;-59
2023/03/28 00:41:39;;;;;;;7.60;3.05;;;2.90;99.90;;;;;;5029941;28;20089;-59
2023/03/28 00:44:38;;;;;;;7.30;2.88;;;3.20;99.90;;;;;;5041452;28;20021;-59
2023/03/28 00:47:07;;;;;;;4.82;2.55;;;2.80;99.90;;;;;;5058765;28;20065;-60
2023/03/28 00:49:33;;;;;;;5.80;2.95;;;2.80;99.90;;;;;;5050676;28;20044;-60
2023/03/28 00:52:02;;;;;;;8.65;2.60;;;2.70;99.90;;;;;;5049353;28;20021;-59
2023/03/28 00:54:32;;;;;;;7.78;3.10;;;3.20;99.90;;;;;;5058825;28;20030;-59
2023/03/28 00:57:00;;;;;;;9.18;2.60;;;2.60;99.90;;;;;;5058599;28;20013;-60
2023/03/28 00:59:31;;;;;;;4.95;2.20;;;2.90;99.90;;;;;;5041498;28;20014;-59
2023/03/28 01:01:57;;;;;;;6.53;2.38;;;2.80;99.90;;;;;;5030446;28;20038;-59
2023/03/28 01:04:32;;;;;;;7.20;2.30;;;3.10;99.90;;;;;;5039805;28;20017;-60
2023/03/28 01:06:58;;;;;;;3.80;2.27;;;2.70;99.90;;;;;;5037629;28;20010;-59
2023/03/28 01:09:24;;;;;;;3.50;2.10;;;2.80;99.90;;;;;;5021661;28;20396;-58
2023/03/28 01:11:51;;;;;;;3.95;1.98;;;3.20;99.90;;;;;;5048070;28;20021;-59
2023/03/28 01:14:21;;;;;;;8.77;2.03;;;2.80;99.90;;;;;;5057407;28;20044;-59
2023/03/28 01:16:48;;;;;;;4.93;1.70;;;2.90;99.90;;;;;;5040921;28;20022;-58
2023/03/28 01:19:57;;;;;;;9.25;3.55;;;2.90;99.90;;;;;;5058254;28;20018;-59
2023/03/28 01:23:00;;;;;;;7.05;2.22;;;2.90;99.90;;;;;;5051911;28;20041;-59
2023/03/28 01:25:53;;;;;;;10.98;2.00;;;2.90;99.90;;;;;;5038235;28;20036;-59
2023/03/28 01:28:36;;;;;;;5.68;2.33;;;2.80;99.90;;;;;;5038220;28;20018;-58
2023/03/28 01:31:21;;;;;;;10.23;2.20;;;2.80;99.90;;;;;;5026464;28;20006;-59
2023/03/28 01:34:06;;;;;;;5.00;2.80;;;2.90;99.90;;;;;;5041880;28;20057;-59
2023/03/28 01:36:58;;;;;;;9.18;2.42;;;3.10;99.90;;;;;;5039255;28;20049;-60
2023/03/28 01:39:33;;;;;;;8.88;2.67;;;3.00;99.90;;;;;;5021071;28;20018;-60
2023/03/28 01:42:06;;;;;;;7.28;2.03;;;2.90;99.90;;;;;;5037860;28;20024;-59
2023/03/28 01:44:40;;;;;;;7.40;1.80;;;2.80;99.90;;;;;;5057779;28;20113;-60
2023/03/28 01:47:15;;;;;;;5.65;2.05;;;2.80;99.90;;;;;;5057413;28;20047;-59
2023/03/28 01:49:47;;;;;;;;;;;2.90;99.90;;;;;;5052880;28;20045;-58
2023/03/28 01:52:25;;;;;;;5.20;1.70;;;2.80;99.90;;;;;;5039268;28;19920;-59
2023/03/28 01:55:05;;;;;;;4.43;2.13;;;2.80;99.90;;;;;;5057745;28;20033;-59
2023/03/28 01:57:40;;;;;;;7.10;2.05;;;2.70;99.90;;;;;;5057313;28;20025;-59
2023/03/28 02:00:11;;;;;;;9.33;3.37;;;2.70;99.90;;;;;;5057262;28;20014;-59
2023/03/28 02:02:42;;;;;;;7.72;2.13;;;2.90;99.90;;;;;;5051750;28;20049;-58
2023/03/28 02:05:12;;;;;;;5.97;1.90;;;2.70;99.90;;;;;;5037600;28;20037;-59
2023/03/28 02:07:40;;;;;;;10.43;2.92;;;2.80;99.90;;;;;;5037334;28;20041;-58
2023/03/28 02:10:08;;;;;;;2.70;1.45;;;2.80;99.90;;;;;;5037495;28;20090;-59
2023/03/28 02:12:39;;;;;;;5.50;2.17;;;2.70;99.90;;;;;;5041632;28;20032;-59
2023/03/28 02:15:12;;;;;;;6.75;2.47;;;2.60;99.90;;;;;;5057210;28;20033;-59
2023/03/28 02:17:42;;;;;;;6.07;1.63;;;2.60;99.90;;;;;;5051704;28;20056;-59
2023/03/28 02:20:13;;;;;;;6.10;2.13;;;2.60;99.90;;;;;;5019946;28;20010;-58
2023/03/28 02:23:06;;;;;;;5.10;2.13;;;3.00;99.90;;;;;;5041824;28;20017;-58
2023/03/28 02:25:32;;;;;;;4.72;1.98;;;2.70;99.90;;;;;;5055753;28;20048;-59
2023/03/28 02:28:04;;;;;;;6.22;2.70;;;2.60;99.90;;;;;;5056854;28;20069;-58
2023/03/28 02:30:30;;;;;;;11.38;2.53;;;2.70;99.90;;;;;;5056398;28;20014;-57
2023/03/28 02:33:26;;;;;;;2.90;1.80;;;2.30;99.90;;;;;;5032802;28;20024;-58
2023/03/28 02:36:12;;;;;;;;;;;2.80;99.90;;;;;;5037271;28;20018;-59
2023/03/28 02:38:56;;;;;;;4.28;2.30;;;2.20;99.90;;;;;;5019997;28;19893;-59
2023/03/28 02:41:37;;;;;;;3.75;2.20;;;2.10;99.90;;;;;;5036911;28;20041;-59
2023/03/28 02:44:06;;;;;;;4.80;2.00;;;2.10;99.90;;;;;;5052512;28;20048;-59
2023/03/28 02:47:14;;;;;;;7.05;2.10;;;2.10;99.90;;;;;;5044702;28;20018;-59
2023/03/28 02:50:03;;;;;;;6.47;2.15;;;2.00;99.90;;;;;;5036825;28;20052;-60
2023/03/28 02:52:35;;;;;;;3.85;1.92;;;2.00;99.90;;;;;;5039123;28;20014;-59
2023/03/28 02:55:02;;;;;;;7.72;2.35;;;2.00;99.90;;;;;;5056586;28;20033;-58
2023/03/28 02:57:32;;;;;;;4.35;2.20;;;2.00;99.90;;;;;;5056430;28;20014;-59
2023/03/28 03:00:12;;;;;;;10.32;2.40;;;2.00;99.90;;;;;;5056529;28;20030;-58
2023/03/28 03:02:40;;;;;;;6.22;2.80;;;1.90;99.90;;;;;;5052540;28;20078;-59
2023/03/28 03:05:08;;;;;;;5.95;2.28;;;1.90;99.90;;;;;;5036665;28;20030;-59
2023/03/28 03:07:35;;;;;;;4.68;2.28;;;1.90;99.90;;;;;;5036621;28;20026;-55
2023/03/28 03:10:00;;;;;;;6.03;2.40;;;1.80;99.90;;;;;;5036749;28;20046;-59
2023/03/28 03:12:26;;;;;;;7.07;2.53;;;1.90;99.90;;;;;;5038061;28;20034;-59
2023/03/28 03:14:52;;;;;;;6.15;2.40;;;2.30;99.90;;;;;;5056470;28;20120;-59
2023/03/28 03:17:17;;;;;;;9.88;3.70;;;2.20;99.90;;;;;;5056498;28;20025;-56
2023/03/28 03:19:43;;;;;;;3.33;2.67;;;1.70;99.90;;;;;;5055217;28;20033;-57
2023/03/28 03:22:09;;;;;;;6.70;2.40;;;1.40;99.90;;;;;;5038707;28;20018;-58
2023/03/28 03:24:35;;;;;;;8.70;3.35;;;2.00;99.90;;;;;;5056589;28;20049;-59
2023/03/28 03:27:01;;;;;;;14.98;3.15;;;2.10;99.90;;;;;;5056296;28;20041;-59
2023/03/28 03:29:27;;;;;;;5.05;2.30;;;2.50;99.90;;;;;;5054863;28;20021;-62
2023/03/28 03:31:53;;;;;;;7.97;2.28;;;2.30;99.90;;;;;;5040082;28;20041;-58
2023/03/28 03:34:18;;;;;;;7.05;2.05;;;2.50;99.90;;;;;;5040197;28;20030;-60
2023/03/28 03:36:44;;;;;;;12.63;3.10;;;2.20;99.90;;;;;;5039827;28;20042;-58
2023/03/28 03:39:10;;;;;;;7.28;2.15;;;2.70;99.90;;;;;;5040146;28;20018;-59
2023/03/28 03:41:36;;;;;;;5.72;2.25;;;2.10;99.90;;;;;;5059838;28;20026;-58
2023/03/28 03:44:01;;;;;;;9.82;1.98;;;2.20;99.90;;;;;;5059660;28;20047;-59
2023/03/28 03:46:27;;;;;;;7.95;2.90;;;2.20;99.90;;;;;;5059736;28;20036;-59
2023/03/28 03:48:52;;;;;;;8.05;2.85;;;2.40;99.90;;;;;;5059592;28;20044;-59
2023/03/28 03:51:18;;;;;;;8.27;2.65;;;2.10;99.90;;;;;;5041552;28;20022;-56
2023/03/28 03:53:45;;;;;;;5.68;2.42;;;2.30;99.90;;;;;;5039585;28;20085;-58
2023/03/28 03:56:11;;;;;;;6.47;2.88;;;1.90;99.90;;;;;;5039622;28;20009;-57
2023/03/28 03:58:36;;;;;;;5.93;2.78;;;2.40;99.90;;;;;;5039161;28;20082;-58
2023/03/28 04:01:02;;;;;;;13.00;2.90;;;1.80;99.90;;;;;;5054452;28;20030;-59
2023/03/28 04:03:28;;;;;;;5.18;2.25;;;1.70;99.90;;;;;;5059250;28;20028;-57
2023/03/28 04:05:56;;;;;;;8.50;3.17;;;1.70;99.90;;;;;;5059190;28;20037;-58
2023/03/28 04:08:22;;;;;;;7.43;2.20;;;1.60;99.90;;;;;;5031080;28;20025;-58
2023/03/28 04:10:48;;;;;;;9.25;2.85;;;1.60;99.90;;;;;;5051811;28;20063;-58
2023/03/28 04:13:14;;;;;;;7.30;2.88;;;1.90;99.90;;;;;;5058854;28;20028;-58
2023/03/28 04:15:39;;;;;;;10.00;2.80;;;2.40;99.90;;;;;;5041599;28;20017;-57
2023/03/28 04:18:05;;;;;;;9.98;2.35;;;1.60;99.90;;;;;;5058909;28;20056;-58
2023/03/28 04:20:30;;;;;;;5.50;2.53;;;1.40;99.90;;;;;;5047793;28;20104;-58
2023/03/28 04:22:59;;;;;;;7.63;2.65;;;2.10;99.90;;;;;;5022293;28;20017;-56
2023/03/28 04:25:24;;;;;;;10.32;2.92;;;1.70;99.90;;;;;;5038835;28;20018;-57
2023/03/28 04:27:53;;;;;;;7.32;2.55;;;1.60;99.90;;;;;;5038205;28;20075;-57
2023/03/28 04:30:20;;;;;;;5.30;2.20;;;1.60;99.90;;;;;;5037902;28;20125;-52
2023/03/28 04:32:49;;;;;;;7.45;2.70;;;1.60;99.90;;;;;;5037611;28;20022;-57
2023/03/28 04:35:15;;;;;;;12.88;2.80;;;1.60;99.90;;;;;;5056823;28;20066;-56
2023/03/28 04:37:44;;;;;;;9.18;2.60;;;1.50;99.90;;;;;;5058500;28;20010;-57
2023/03/28 04:40:09;;;;;;;4.15;2.40;;;1.50;99.90;;;;;;5058126;28;20499;-56
2023/03/28 04:42:38;;;;;;;5.78;3.45;;;1.50;99.90;;;;;;5057942;28;20024;-58
2023/03/28 04:45:05;;;;;;;9.30;3.97;;;1.60;99.90;;;;;;5040606;28;20046;-55
2023/03/28 04:47:32;;;;;;;5.55;2.65;;;1.50;99.90;;;;;;5037521;28;20022;-57
2023/03/28 04:49:57;;;;;;;10.60;2.92;;;1.50;99.90;;;;;;5037847;28;20080;-56
2023/03/28 04:52:23;;;;;;;6.07;2.70;;;1.70;99.90;;;;;;5044949;28;20006;-58
2023/03/28 04:54:50;;;;;;;8.05;2.67;;;1.80;99.90;;;;;;5041030;28;20036;-58
2023/03/28 04:57:16;;;;;;;8.95;3.20;;;1.50;99.90;;;;;;5035973;28;20037;-57
2023/03/28 04:59:41;;;;;;;3.83;2.60;;;1.60;99.90;;;;;;5037723;28;20037;-56
2023/03/28 05:02:07;;;;;;;7.05;3.65;;;1.50;99.90;;;;;;5029427;28;20033;-56
2023/03/28 05:04:33;;;;;;;6.68;3.08;;;1.60;99.90;;;;;;5044648;28;20077;-57
2023/03/28 05:06:58;;;;;;;6.43;3.35;;;1.60;99.90;;;;;;5037625;28;20013;-58
2023/03/28 05:09:25;;;;;;;9.40;2.65;;;1.50;99.90;;;;;;5020720;28;20025;-59
2023/03/28 05:11:50;;;;;;;3.80;2.30;;;1.60;99.90;;;;;;5020714;28;20295;-60
2023/03/28 05:14:16;;;;;;;8.02;2.55;;;1.60;99.90;;;;;;5045526;28;20046;-59
2023/03/28 05:16:42;;;;;;;5.90;2.65;;;1.60;99.90;;;;;;5057437;28;20032;-54
2023/03/28 05:19:08;;;;;;;11.63;2.97;;;1.60;99.90;;;;;;5057415;28;20017;-60
2023/03/28 05:21:35;;;;;;;4.82;2.20;;;1.60;99.90;;;;;;5056869;28;20029;-59
2023/03/28 05:24:00;;;;;;;16.02;4.93;;;1.50;99.90;;;;;;5054408;28;20017;-60
2023/03/28 05:26:26;;;;;;;4.90;2.67;;;1.50;99.90;;;;;;5037252;28;20037;-59
2023/03/28 05:28:52;;;;;;;14.52;2.88;;;1.60;99.90;;;;;;5037512;28;20029;-59
2023/03/28 05:31:18;;;;;;;6.45;3.28;;;1.90;99.90;;;;;;5056655;28;20021;-60
2023/03/28 05:33:44;;;;;;;7.80;2.85;;;1.60;99.90;;;;;;5056893;28;20108;-58
2023/03/28 05:36:11;;;;;;;10.60;3.03;;;1.60;99.90;;;;;;5037610;28;20106;-60
2023/03/28 05:38:37;;;;;;;8.50;3.40;;;1.80;99.90;;;;;;5037313;28;20090;-60
2023/03/28 05:41:03;;;;;;;4.20;2.50;;;1.80;99.90;;;;;;5037338;28;20090;-59
2023/03/28 05:43:29;;;;;;;3.83;2.20;;;2.00;99.90;;;;;;5038452;28;20018;-59
2023/03/28 05:45:55;;;;;;;4.20;2.47;;;2.20;99.90;;;;;;5037357;28;20034;-58
2023/03/28 05:48:20;;;;;;;4.85;2.15;;;2.50;99.90;;;;;;5037445;28;20041;-60
2023/03/28 05:50:49;;;;;;;5.82;2.47;;;2.90;99.90;;;;;;5036994;28;20036;-58
2023/03/28 05:53:14;;;;;;;6.28;2.25;;;3.20;99.90;;;;;;5050269;22;20048;-47
2023/03/28 05:55:40;;;;;;;11.43;3.08;;;3.50;99.90;;;;;;5050910;28;20039;-49
2023/03/28 05:58:06;;;;;;;7.65;2.90;;;3.80;99.90;;;;;;5033436;28;20446;-46
2023/03/28 06:00:33;;;;;;;4.78;1.98;;;4.10;99.90;;;;;;5033758;28;20109;-49
2023/03/28 06:02:59;;;;;;;10.95;2.25;;;4.40;99.90;;;;;;5046467;28;20021;-52
2023/03/28 06:05:25;;;;;;;10.02;2.65;;;4.50;99.90;;;;;;5031585;28;20025;-48
2023/03/28 06:07:50;;;;;;;6.13;3.25;;;4.30;99.90;;;;;;5013428;28;20033;-50
2023/03/28 06:10:16;;;;;;;7.63;2.63;;;4.20;99.90;;;;;;5013812;28;20037;-48
2023/03/28 06:12:42;;;;;;;7.88;2.35;;;4.20;99.90;;;;;;5013836;28;20029;-48
2023/03/28 06:15:08;;;;;;;8.15;2.88;;;4.40;99.90;;;;;;5013980;28;20029;-49
2023/03/28 06:17:34;;;;;;;6.55;3.28;;;4.50;99.90;;;;;;5013474;28;20394;-47
2023/03/28 06:20:00;;;;;;;9.48;2.75;;;4.80;99.90;;;;;;5031577;28;20032;-48
2023/03/28 06:22:26;;;;;;;4.65;2.45;;;5.10;99.90;;;;;;5031289;28;20025;-50
2023/03/28 06:24:51;;;;;;;4.80;2.38;;;5.70;99.90;;;;;;5013724;28;20033;-49
2023/03/28 06:27:17;;;;;;;5.03;2.72;;;6.30;99.90;;;;;;5031167;28;20287;-48
2023/03/28 06:29:43;;;;;;;5.47;2.20;;;7.00;99.90;;;;;;5013497;28;20056;-50
2023/03/28 06:32:08;;;;;;;5.15;2.63;;;7.70;99.90;;;;;;5013335;28;20037;-50
2023/03/28 06:34:34;;;;;;;5.00;1.70;;;8.40;99.90;;;;;;5031548;28;20116;-52
2023/03/28 06:37:00;;;;;;;6.45;1.98;;;9.30;99.90;;;;;;5031716;28;20511;-51
2023/03/28 06:39:26;;;;;;;3.35;1.83;;;10.10;99.20;;;;;;5031374;28;20025;-50
2023/03/28 06:41:51;;;;;;;6.80;2.22;;;10.80;97.70;;;;;;5031057;28;20033;-50
2023/03/28 06:44:17;;;;;;;4.63;2.15;;;11.30;97.00;;;;;;5031544;28;20057;-52
2023/03/28 06:46:42;;;;;;;4.82;1.88;;;11.80;95.30;;;;;;5031432;28;20033;-47
2023/03/28 06:49:08;;;;;;;6.60;2.42;;;12.10;94.80;;;;;;5031519;28;20018;-47
2023/03/28 06:51:34;;;;;;;7.13;2.08;;;12.70;94.00;;;;;;5013589;28;20500;-52
2023/03/28 06:53:59;;;;;;;7.80;2.17;;;12.90;92.90;;;;;;5013034;28;20339;-49
2023/03/28 06:56:25;;;;;;;6.05;2.33;;;13.30;91.50;;;;;;5010314;28;20546;-50
2023/03/28 06:58:50;;;;;;;6.00;2.08;;;13.60;91.60;;;;;;5027040;28;20030;-52
2023/03/28 07:01:16;;;;;;;5.43;1.95;;;13.70;91.30;;;;;;5030736;28;20481;-47
2023/03/28 07:03:41;;;;;;;4.68;2.08;;;14.00;90.90;;;;;;5033809;28;20404;-54
2023/03/28 07:06:08;;;;;;;4.20;1.85;;;14.30;89.50;;;;;;5035537;28;20035;-50
2023/03/28 07:08:34;;;;;;;8.40;1.92;;;14.70;87.60;;;;;;5034904;28;20059;-52
2023/03/28 07:11:00;;;;;;;7.20;2.28;;;15.00;86.10;;;;;;5034882;28;20033;-48
2023/03/28 07:13:26;;;;;;;3.58;1.63;;;15.10;85.60;;;;;;5035007;28;20036;-52
2023/03/28 07:16:04;;;;;;;11.40;2.20;;;15.40;85.00;;;;;;5034918;28;20087;-51
2023/03/28 07:18:30;;;;;;;4.97;1.98;;;16.40;82.60;;;;;;5034864;28;20033;-49
2023/03/28 07:20:55;;;;;;;4.35;2.13;;;16.40;79.70;;;;;;5016870;28;20029;-50
2023/03/28 07:23:21;;;;;;;7.88;2.17;;;16.70;80.20;;;;;;5034714;28;20029;-51
2023/03/28 07:25:47;;;;;;;4.57;1.98;;;17.00;79.00;;;;;;5016727;28;20017;-53
2023/03/28 07:28:12;;;;;;;4.85;1.90;;;16.70;77.30;;;;;;5034300;28;20123;-52
2023/03/28 07:30:38;;;;;;;9.05;2.10;;;17.10;77.40;;;;;;5033784;28;20056;-48
2023/03/28 07:33:03;;;;;;;9.30;2.58;;;17.10;77.70;;;;;;5034922;28;20332;-48
2023/03/28 07:35:29;;;;;;;8.98;1.92;;;18.00;74.20;;;;;;5034500;28;20033;-50
2023/03/28 07:37:54;;;;;;;9.73;2.08;;;17.90;73.60;;;;;;5034246;28;20489;-51
2023/03/28 07:40:20;;;;;;;6.03;1.90;;;17.90;71.90;;;;;;5033984;28;20078;-50
2023/03/28 07:42:47;;;;;;;4.25;1.92;;;17.90;71.50;;;;;;5034287;28;20032;-50
2023/03/28 07:45:13;;;;;;;7.93;2.42;;;18.00;71.10;;;;;;5034326;28;20031;-52
2023/03/28 07:47:38;;;;;;;7.18;2.20;;;18.20;70.30;;;;;;5016271;28;20108;-48
2023/03/28 07:50:04;;;;;;;12.60;2.38;;;18.30;70.90;;;;;;5016096;28;20029;-49
2023/03/28 07:52:30;;;;;;;6.30;2.08;;;19.00;68.50;;;;;;5033896;28;20021;-47
2023/03/28 07:54:55;;;;;;;5.35;2.05;;;18.70;67.90;;;;;;5033908;28;20116;-48
2023/03/28 07:57:21;;;;;;;5.53;2.03;;;18.30;68.70;;;;;;5034154;28;20025;-49
2023/03/28 07:59:49;;;;;;;2.90;1.55;;;18.40;68.30;;;;;;5033909;28;20029;-48
2023/03/28 08:02:14;;;;;;;7.50;2.97;;;18.20;67.40;;;;;;5033996;28;20022;-49
2023/03/28 08:04:40;;;;;;;8.77;2.10;;;17.50;68.10;;;;;;5033608;28;20147;-49
2023/03/28 08:07:06;;;;;;;5.45;2.38;;;17.10;68.40;;;;;;5015664;28;20029;-50
2023/03/28 08:09:32;;;;;;;3.78;1.95;;;16.70;70.10;;;;;;5034137;28;20068;-46
2023/03/28 08:11:58;;;;;;;5.20;2.25;;;16.80;71.90;;;;;;5033702;28;20065;-50
2023/03/28 08:14:23;;;;;;;7.93;2.83;;;16.70;71.00;;;;;;5033158;28;20022;-52
2023/03/28 08:16:49;;;;;;;7.03;2.47;;;16.40;71.70;;;;;;5033321;28;20029;-49
2023/03/28 08:19:15;;;;;;;7.70;1.95;;;15.70;75.70;;;;;;5034022;28;20140;-51
2023/03/28 08:21:41;;;;;;;6.68;2.45;;;15.50;75.30;;;;;;5033483;28;20096;-49
2023/03/28 08:24:07;;;;;;;8.77;2.70;;;14.60;76.80;;;;;;5015751;28;20397;-50
2023/03/28 08:26:33;;;;;;;7.50;2.28;;;14.10;78.50;;;;;;5033111;28;20047;-47
2023/03/28 08:28:58;;;;;;;8.30;2.50;;;13.10;81.10;;;;;;5033522;28;20401;-53
2023/03/28 08:31:26;;;;;;;14.73;2.80;;;11.80;84.20;;;;;;5032500;28;20113;-48
2023/03/28 08:33:53;;;;;;;11.02;2.88;;;10.70;89.80;;;;;;5032801;28;20086;-47
2023/03/28 08:36:24;;;;;;;9.38;3.00;;;9.90;92.30;;;;;;5033291;28;20025;-51
2023/03/28 08:38:50;;;;;;;7.80;2.60;;;9.10;95.30;;;;;;5016713;28;20073;-51
2023/03/28 08:41:27;;;;;;;10.15;2.30;;;8.70;97.20;;;;;;5024195;28;20100;-52
2023/03/28 08:44:11;;;;;;;10.55;2.45;;;8.30;98.10;;;;;;5023764;28;20029;-50
2023/03/28 08:46:40;;;;;;;9.90;2.72;;;8.00;99.30;;;;;;5033270;28;20037;-48
2023/03/28 08:49:12;;;;;;;15.65;3.17;;;7.80;99.90;;;;;;5015191;28;20028;-48
2023/03/28 08:51:39;;;;;;;9.02;2.50;;;7.80;99.90;;;;;;5033898;28;20034;-49
2023/03/28 08:54:27;;;;;;;40.15;22.10;;;8.20;99.90;;;;;;5032721;28;20053;-49
2023/03/28 08:56:55;;;;;;;8.15;3.03;;;9.50;99.80;;;;;;5032600;28;20026;-48
2023/03/28 08:59:42;;;;;;;10.88;2.75;;;11.00;97.50;;;;;;5033521;28;20021;-50
2023/03/28 09:02:27;;;;;;;2.55;1.58;;;12.50;95.10;;;;;;5033900;28;20409;-51
2023/03/28 09:04:56;;;;;;;7.43;2.10;;;13.90;91.60;;;;;;5034247;28;20049;-49
2023/03/28 09:07:45;;;;;;;7.50;1.98;;;14.90;88.10;;;;;;5033946;28;20032;-52
2023/03/28 09:10:20;;;;;;;8.10;2.65;;;15.90;82.40;;;;;;5034295;28;20025;-51
2023/03/28 09:12:52;;;;;;;8.00;2.00;;;16.40;79.10;;;;;;5034034;28;20026;-50
2023/03/28 09:15:26;;;;;;;6.10;2.60;;;16.50;77.60;;;;;;5033461;28;20025;-50
2023/03/28 09:18:30;;;;;;;6.30;1.98;;;16.50;77.60;;;;;;5033192;28;20369;-52
2023/03/28 09:21:22;;;;;;;6.10;2.75;;;16.60;77.20;;;;;;5033343;28;20113;-50
2023/03/28 09:23:47;;;;;;;10.00;2.15;;;16.90;76.20;;;;;;5033298;28;20500;-50
2023/03/28 09:26:22;;;;;;;5.80;1.77;;;17.50;73.90;;;;;;5032288;28;20030;-51
2023/03/28 09:28:50;;;;;;;8.48;2.10;;;17.90;72.30;;;;;;5032905;28;20397;-49
2023/03/28 09:31:19;;;;;;;7.07;2.05;;;18.70;71.40;;;;;;5032685;28;20029;-50
2023/03/28 09:33:47;;;;;;;6.65;1.77;;;18.70;68.90;;;;;;5013706;28;20053;-53
2023/03/28 09:36:17;;;;;;;4.13;1.60;;;18.40;68.30;;;;;;5031639;28;20024;-50
2023/03/28 09:38:54;;;;;;;4.45;1.63;;;17.60;66.70;;;;;;5014640;28;20052;-49
2023/03/28 09:41:51;;;;;;;10.40;2.15;;;16.50;69.50;;;;;;5002586;28;20018;-55
2023/03/28 09:44:20;;;;;;;5.82;2.10;;;15.50;70.50;;;;;;5008515;28;20414;-54
2023/03/28 09:46:47;;;;;;;6.72;1.95;;;14.50;71.40;;;;;;4994724;28;20461;-51
2023/03/28 09:49:17;;;;;;;12.05;2.35;;;13.30;76.30;;;;;;5012379;28;20026;-48
2023/03/28 09:51:44;;;;;;;9.65;2.35;;;11.90;80.10;;;;;;5019897;28;20316;-50
2023/03/28 09:54:11;;;;;;;8.52;1.88;;;11.40;84.20;;;;;;5031842;28;20029;-50
2023/03/28 09:56:43;;;;;;;8.57;1.77;;;10.80;89.90;;;;;;5014206;28;20073;-47
2023/03/28 09:59:24;;;;;;;5.03;1.83;;;10.40;88.20;;;;;;5032003;28;20025;-46
2023/03/28 10:01:52;;;;;;;6.10;1.98;;;10.20;90.70;;;;;;5012009;28;20052;-55
2023/03/28 10:04:29;;;;;;;5.70;2.42;;;10.00;91.20;;;;;;5012159;28;20088;-53
2023/03/28 10:07:16;;;;;;;5.35;1.80;;;10.40;91.00;;;;;;5012337;28;20030;-50
2023/03/28 10:09:53;;;;;;;9.60;1.90;;;10.70;89.90;;;;;;5012321;28;20087;-54
2023/03/28 10:12:30;;;;;;;6.82;2.08;;;10.60;90.10;;;;;;5029670;28;20048;-52
2023/03/28 10:14:58;;;;;;;13.85;2.00;;;10.60;99.90;;;;;;5030791;28;20072;-55
2023/03/28 10:17:42;;;;;;;8.27;1.58;;;10.50;93.50;;;;;;5013230;28;20029;-49
2023/03/28 10:20:18;;;;;;;6.88;1.85;;;10.50;90.20;;;;;;5013884;28;20393;-61
2023/03/28 10:22:47;;;;;;;7.05;1.77;;;10.40;90.00;;;;;;5031543;28;20036;-51
2023/03/28 10:25:35;;;;;;;11.10;3.97;;;10.20;88.10;;;;;;5012023;28;20065;-52
2023/03/28 10:28:03;;;;;;;19.08;7.13;;;10.20;86.70;;;;;;5012016;28;20029;-51
2023/03/28 10:30:31;;;;;;;8.98;3.22;;;10.20;86.80;;;;;;5033174;28;20079;-53
2023/03/28 10:33:22;;;;;;;4.13;1.45;;;10.30;87.60;;;;;;5010531;28;20060;-52
2023/03/28 10:36:05;;;;;;;6.25;1.90;;;10.40;87.60;;;;;;5031467;28;20374;-51
2023/03/28 10:38:50;;;;;;;5.97;1.85;;;10.20;87.00;;;;;;5035586;28;20025;-52
2023/03/28 10:41:20;;;;;;;8.57;2.05;;;10.00;88.00;;;;;;5037444;28;20524;-51
2023/03/28 10:43:46;;;;;;;5.35;1.80;;;9.90;86.10;;;;;;5037112;28;20065;-51
2023/03/28 10:46:17;;;;;;;5.40;1.20;;;9.90;84.80;;;;;;5035872;28;20532;-53
2023/03/28 10:48:52;;;;;;;2.40;1.38;;;10.00;84.00;;;;;;5035433;28;20513;-53
2023/03/28 10:51:20;;;;;;;10.60;1.67;;;10.10;85.90;;;;;;5035549;28;20025;-52
2023/03/28 10:54:08;;;;;;;4.68;2.03;;;10.00;86.80;;;;;;5036120;28;20029;-49
2023/03/28 10:56:40;;;;;;;7.45;1.50;;;9.80;87.40;;;;;;5037194;28;20026;-52
2023/03/28 10:59:45;;;;;;;4.10;1.42;;;9.90;88.20;;;;;;5019642;28;20060;-58
2023/03/28 11:02:29;;;;;;;4.70;1.40;;;9.70;85.90;;;;;;5031494;28;20047;-51
2023/03/28 11:05:21;;;;;;;3.70;1.48;;;9.90;87.20;;;;;;5019646;28;20033;-50
2023/03/28 11:08:04;;;;;;;3.45;1.58;;;10.00;87.70;;;;;;5013644;28;20046;-56
2023/03/28 11:10:34;;;;;;;5.15;2.00;;;10.10;87.60;;;;;;5024210;28;20029;-47
2023/03/28 11:13:23;;;;;;;8.60;2.20;;;10.10;85.80;;;;;;5019698;28;20413;-52
2023/03/28 11:16:10;;;;;;;3.88;1.83;;;10.10;86.70;;;;;;5018789;28;20478;-49
2023/03/28 11:18:50;;;;;;;4.03;1.52;;;10.10;88.50;;;;;;5016898;28;20031;-57
2023/03/28 11:21:43;;;;;;;8.07;2.80;;;10.20;88.30;;;;;;5026771;28;20484;-52
2023/03/28 11:24:11;;;;;;;8.68;1.58;;;10.20;86.70;;;;;;5037789;28;20134;-58
2023/03/28 11:26:53;;;;;;;5.65;2.17;;;10.20;87.80;;;;;;5020016;28;20025;-50
2023/03/28 11:29:38;;;;;;;7.78;2.33;;;10.20;90.00;;;;;;5020131;28;20322;-52
2023/03/28 11:32:22;;;;;;;6.63;1.83;;;10.30;89.90;;;;;;5019919;28;20037;-52
2023/03/28 11:35:14;;;;;;;4.18;1.15;;;10.20;87.20;;;;;;5032314;28;20026;-55
2023/03/28 11:37:59;;;;;;;2.55;1.73;;;10.00;82.30;;;;;;5029174;28;20557;-50
2023/03/28 11:40:29;;;;;;;3.67;1.52;;;9.80;83.50;;;;;;5019675;28;20398;-54
2023/03/28 11:43:05;;;;;;;4.95;1.50;;;9.80;86.40;;;;;;5018043;28;20041;-51
2023/03/28 11:45:45;;;;;;;3.78;1.10;;;9.70;87.00;;;;;;5033549;28;20044;-49
2023/03/28 11:48:11;;;;;;;3.35;1.45;;;9.80;86.10;;;;;;5019492;28;20044;-49
2023/03/28 11:50:48;;;;;;;7.25;1.55;;;9.70;86.50;;;;;;5031993;28;20030;-51
2023/03/28 11:53:22;;;;;;;6.57;1.40;;;9.80;87.40;;;;;;5051674;22;21402;-50
2023/03/28 11:55:56;;;;;;;11.85;1.70;;;9.70;85.10;;;;;;5013759;28;20038;-50
2023/03/28 11:58:28;;;;;;;5.32;2.20;;;9.60;85.60;;;;;;5013545;28;20216;-48
2023/03/28 12:01:08;;;;;;;6.03;1.38;;;9.60;87.00;;;;;;4995400;28;20029;-54
2023/03/28 12:04:02;;;;;;;3.95;1.48;;;9.80;89.00;;;;;;4971564;28;20105;-53
2023/03/28 12:06:45;;;;;;;6.78;2.08;;;9.90;90.00;;;;;;4974995;28;20521;-54
2023/03/28 12:09:19;;;;;;;6.10;2.03;;;9.90;86.10;;;;;;4957555;28;20034;-51
2023/03/28 12:11:44;;;;;;;53.78;27.80;;;9.80;85.50;;;;;;4965075;28;20030;-50
2023/03/28 12:14:33;;;;;;;9.35;3.30;;;9.70;87.50;;;;;;4993988;28;20035;-49
2023/03/28 12:17:03;;;;;;;5.05;1.70;;;9.80;86.70;;;;;;4994066;28;20467;-51
2023/03/28 12:19:35;;;;;;;3.30;1.75;;;9.80;85.70;;;;;;4994586;28;20030;-50
2023/03/28 12:22:17;;;;;;;4.97;1.35;;;9.80;86.20;;;;;;4992941;28;20023;-51
2023/03/28 12:25:08;;;;;;;5.47;2.20;;;9.80;88.80;;;;;;4993008;28;20037;-51
2023/03/28 12:28:09;;;;;;;5.05;2.03;;;10.00;86.60;;;;;;4989690;28;20026;-48
2023/03/28 12:31:02;;;;;;;6.75;2.17;;;9.60;87.20;;;;;;4982546;28;20045;-53
2023/03/28 12:33:48;;;;;;;6.85;1.85;;;9.60;85.90;;;;;;4992941;28;20062;-51
2023/03/28 12:36:37;;;;;;;3.30;1.65;;;9.70;86.60;;;;;;4993256;28;20026;-53
2023/03/28 12:39:34;;;;;;;2.95;1.30;;;9.80;87.20;;;;;;4987931;28;20486;-52
2023/03/28 12:42:03;;;;;;;2.20;1.42;;;9.90;86.80;;;;;;4991813;28;20022;-56
2023/03/28 12:44:41;;;;;;;5.05;1.63;;;9.90;85.70;;;;;;4992795;28;20026;-54
2023/03/28 12:47:14;;;;;;;2.60;1.25;;;9.90;86.70;;;;;;4975987;28;20070;-52
2023/03/28 12:49:49;;;;;;;5.07;1.77;;;9.90;80.90;;;;;;4978722;28;20108;-53
2023/03/28 12:52:21;;;;;;;2.50;1.42;;;9.80;82.30;;;;;;4993195;28;20023;-50
2023/03/28 12:55:01;;;;;;;2.15;1.20;;;9.90;83.90;;;;;;5001083;28;20038;-60
2023/03/28 12:57:43;;;;;;;11.43;1.60;;;10.00;83.40;;;;;;5015353;28;20030;-61
2023/03/28 13:00:30;;;;;;;5.38;1.60;;;10.10;80.40;;;;;;4999434;28;20094;-61
2023/03/28 13:03:17;;;;;;;6.03;1.80;;;10.10;81.80;;;;;;5018682;28;20010;-57
2023/03/28 13:05:56;;;;;;;3.95;1.50;;;10.10;80.40;;;;;;5018681;28;20037;-61
2023/03/28 13:08:49;;;;;;;4.85;1.55;;;9.90;81.80;;;;;;5018529;28;20034;-61
2023/03/28 13:11:42;;;;;;;6.95;2.47;;;9.80;82.20;;;;;;5018897;28;20030;-61
2023/03/28 13:14:30;;;;;;;7.95;1.50;;;9.90;82.90;;;;;;5018941;28;20057;-63
2023/03/28 13:17:01;;;;;;;12.98;1.80;;;9.50;82.10;;;;;;5017996;28;20085;-61